Huvudsida
METAR-TAF:

METAR-TAF

Flygplatser :

Bage Aeroporto

Bagé, Rio Grande do Sul, Brasilien

latitud: 31-21S, longitud: 054-07W, höjd: 180 m

Aktuellt väderrapport

Denna rapport gjordes för 37 minuter sedan, klockan 11:15 UTC
Vind 12 kt från väst
Temperatur 7°C
Fuktighet 76%
Tryck 1018 hPa
Sikt: 8000 m
Spridda moln på en höjd av 1600 ft

METAR: SBBG 161115Z 28012KT 8000 SCT016 07/03 Q1018

Tid: 08:52 (11:52 UTC)

Väderprognos

Denna rapport gjordes för 2 timmar och 52 minuter sedan, klockan 09:00 UTC
Prognos gäller från 16 kl. 12 UTC till 16 kl. 24 UTC
Vind 10 kt från väst
Sikt 10 km eller mer
Spridda moln på en höjd av 3000 ft
Blir
från 16 kl. 14 UTC till 16 kl. 16 UTC
Vind 15 kt från väst

TAF: SBBG 160900Z 1612/1624 28010KT 9999 SCT030 TN08/1612Z TX13/1617Z BECMG 1614/1616 27015KT RMK PCQ

Aktuella väderrapporter och prognoser från 4000 flygplatser (METAR- och TAF-rapporter).

De tillgängliga stationerna syns som gula och röda prickar på kartan.

För musen över prickarna för att se namnen på stationerna.

Klicka sedan för att få väderrapporter och prognoser.

För att ändra kartan: Klicka på de gröna knapparna med ett svart kors på för att zooma in; den gröna knappen med ett streck på för att zooma ut; eller på de gröna pilarna för angränsande kartor.


METAR-TAF: